Relevés horaires Florennes (Belgique)


Relevés horaires à Florennes - Jeudi 19 Juill. 2018
Heure UTC1 Température [°C] Vent [km/h] Hum. [%] Pres.4 [hPa] Visi. [Km] Nébu. [octa] Préc.5 [mm] Cond.
2m. Res. Ros. Dir.2 Vit. Moy. Raf.3
22:00 17.6 17.6 9.9 NNO 0.0 -- 0.0 61 1017.2(0.5/3h) 20 -- -- --
21:00 19.3 19.3 10.5 NNO 0.0 -- 0.0 57 1017(0.4/3h) 20 -- -- --
20:00 21.0 21.0 9.7 NNO 0.0 -- 0.0 48 1016.5(0.3/3h) 20 -- -- --
19:00 22.7 22.7 10.0 NNO 0.0 -- 0.0 45 1016.2(-0.1/3h) 20 -- -- --
18:00 24.6 24.6 9.2 NNO 0.0 -- 0.0 38 1015.8(-0.7/3h) 20 -- -- --
17:00 25.7 25.7 7.9 NNO 0.0 -- 0.0 32 1015.6(-1.2/3h) 20 -- -- --
16:00 26.2 26.2 7.2 NNO 0.0 -- 0.0 30 1016(-1.1/3h) 20 -- -- --
15:00 25.9 25.9 8.3 NNE 5.6 -- 0.0 33 1016.5(-1.0/3h) 25 3/8 -- --
14:00 25.9 25.9 7.4 NE 3.7 -- 0.0 31 1016.8(-0.8/3h) 25 5/8 -- --
13:00 24.9 24.9 8.4 NNO 1.9 -- 0.0 35 1017.2(-0.6/3h) 25 6/8 -- --
12:00 24.8 24.8 8.8 NE 3.7 -- 0.0 36 1017.6(-0.5/3h) 25 5/8 -- --
11:00 24.0 24.0 8.6 NNO 1.9 -- 0.0 37 1017.8(-0.3/3h) 25 5/8 -- --
10:00 22.8 22.8 8.2 N 3.7 -- 0.0 39 1018.2(-0.1/3h) 25 3/8 -- --
09:00 22.4 22.4 10.4 NNO 1.9 -- 0.0 47 1018.3(0.1/3h) 25 1/8 -- --
08:00 21.3 21.3 11.6 NNO 1.9 -- 0.0 54 1018.6(0.2/3h) 20 1/8 -- --
07:00 19.5 19.5 12.3 NNO 1.9 -- 0.0 63 1018.7(0.1/3h) 20 1/8 -- --
06:00 18.0 18.0 12.2 NNO 1.9 -- 0.0 69 1018.7(0.0/3h) 20 1/8 -- --
05:00 15.4 15.4 11.2 E 3.7 -- 0.0 76 1019(-0.4/3h) 15 1/8 -- --
04:00 14.9 14.9 10.8 NNO 1.9 -- 0.0 76 1019(-0.6/3h) 20 1/8 -- --
03:00 14.8 14.8 10.6 NNO 0.0 -- 0.0 76 1019.2(-0.6/3h) 20 -- -- --
02:00 15.1 15.1 10.7 NNO 0.0 -- 0.0 75 1019.5(-0.3/3h) 20 -- -- --
01:00 15.6 15.6 10.8 NNO 0.0 -- 0.0 73 1019.7(0.3/3h) 20 -- -- --
00:00 15.9 15.9 11.0 NNO 0.0 -- 0.0 73 1019.7(0.8/3h) 20 -- -- --

1 Coordinated Universal Time. Actuellement il est 01:00 locale et 23:00 UTC.

2 Le vent souffle depuis la direction indiquée vers la direction oposée.

3 Les rafales max. sont disponible 40 min après l'heure du relevé.

4 Pour les stations d'altitude (plus de 600m) le géopotentiel du niveau le plus proche de la pression obligatoire est indiqué.

5 Les stations disposant d'un diffuseur peuvent indiquer "trace". Cela signifie que des précipitations ont touchés le sol mais que la quantité est inférieure à 0.1 mm.

Récapitulatif de la journée
Température [°C] Vent [km/h] Ensoleillement4 [h] Precipitations totale5 [mm] Pression [Hpa]
Min1 Max.2 Moy.3 Max. Min Max.
13.1 26.8 0 0.0 0 h 0 min 0 1015.6 1019.7

1 Température minimale relevée entre 18:00 UTC la veille et 18:00 UTC le jour donné.

2 Température maximale relevée entre 06:00 UTC le jour donné et 06:00 UTC le lendemain.

3 Vent moyen de la journée basé sur les relevés horaires.

4 Ensoleillement en heures relevé entre 06:00 UTC la veille et 06:00 UTC le jour donné.

5 Précipitations totales tombées entre 06:00 UTC la jour donné et 06:00 UTC le lendemain.

Graphiques horaires